Time;durP1;ratioP1;P1;durP2;ratioP2;P2;SDS_P1;SDS_P2;PMS_P1;PMS_P2;Temp;Humidity;BMP_temperature;BMP_pressure;BME280_temperature;BME280_humidity;BME280_pressure;Samples;Min_cycle;Max_cycle;Signal;HPM_P1;HPM_P2
2022/04/05 00:02:18;;;;;;;0.30;0.30;;;;;;;18.85;32.12;100587.81;16142359;19;130954;-44
2022/04/05 00:07:40;;;;;;;0.43;0.30;;;;;;;18.81;32.09;100581.94;16139122;19;129375;-48
2022/04/05 00:13:07;;;;;;;0.52;0.43;;;;;;;18.79;31.87;100580.53;16138145;19;129289;-43
2022/04/05 00:18:28;;;;;;;0.85;0.30;;;;;;;18.76;32.15;100588.25;16141835;19;131646;-43
2022/04/05 00:23:50;;;;;;;0.50;0.28;;;;;;;18.74;31.95;100589.63;16139983;19;129412;-45
2022/04/05 00:29:12;;;;;;;2.10;0.30;;;;;;;18.70;32.35;100583.75;16140043;19;129574;-43
2022/04/05 00:34:34;;;;;;;2.15;0.30;;;;;;;18.68;32.22;100580.41;16136809;19;129430;-46
2022/04/05 00:39:56;;;;;;;0.80;0.40;;;;;;;18.66;32.11;100582.59;16140314;19;129481;-43
2022/04/05 00:45:20;;;;;;;0.70;0.50;;;;;;;18.64;32.07;100584.75;16137456;19;129014;-45
2022/04/05 00:50:41;;;;;;;0.50;0.38;;;;;;;18.63;32.00;100579.50;16138169;19;130331;-46
2022/04/05 00:56:05;;;;;;;0.65;0.30;;;;;;;18.60;32.25;100589.13;16134138;19;129339;-43
2022/04/05 01:01:28;;;;;;;0.50;0.30;;;;;;;18.57;32.44;100592.44;16138663;19;129264;-46
2022/04/05 01:06:51;;;;;;;2.40;0.40;;;;;;;18.55;32.35;100587.13;16130574;19;129739;-45
2022/04/05 01:12:13;;;;;;;1.73;0.57;;;;;;;18.53;32.43;100585.72;16136441;19;130226;-46
2022/04/05 01:17:35;;;;;;;0.82;0.40;;;;;;;18.51;32.34;100585.97;16132982;19;129397;-46
2022/04/05 01:22:57;;;;;;;2.33;0.47;;;;;;;18.49;32.43;100587.28;16137431;19;129971;-44
2022/04/05 01:28:19;;;;;;;1.13;0.40;;;;;;;18.47;32.25;100595.88;16135925;19;129872;-42
2022/04/05 01:33:42;;;;;;;1.48;0.57;;;;;;;18.45;32.57;100596.13;16134847;19;129589;-47
2022/04/05 01:39:06;;;;;;;1.20;0.50;;;;;;;18.43;32.66;100592.78;16136639;19;129938;-43
2022/04/05 01:44:29;;;;;;;1.25;0.50;;;;;;;18.43;32.70;100586.38;16133631;19;130826;-45
2022/04/05 01:49:51;;;;;;;0.93;0.35;;;;;;;18.40;32.39;100579.44;16134530;19;129737;-45
2022/04/05 01:55:13;;;;;;;0.90;0.40;;;;;;;18.38;32.28;100581.56;16132938;19;130498;-43
2022/04/05 02:00:35;;;;;;;0.77;0.40;;;;;;;18.36;32.31;100572.66;16131447;19;129925;-45
2022/04/05 02:05:56;;;;;;;1.20;0.60;;;;;;;18.34;32.47;100580.38;16132334;19;129591;-48
2022/04/05 02:11:18;;;;;;;0.82;0.40;;;;;;;18.33;32.40;100575.97;16133656;19;131859;-46
2022/04/05 02:16:40;;;;;;;1.30;0.43;;;;;;;18.29;32.73;100577.56;16127711;19;129604;-45
2022/04/05 02:22:03;;;;;;;1.30;0.50;;;;;;;18.29;32.54;100577.56;16142510;19;129834;-48
2022/04/05 02:27:24;;;;;;;0.60;0.30;;;;;;;18.27;32.45;100579.72;16148546;19;129777;-43
2022/04/05 02:32:46;;;;;;;1.23;0.45;;;;;;;18.25;32.55;100570.84;16145170;19;129769;-46
2022/04/05 02:38:09;;;;;;;0.50;0.25;;;;;;;18.24;32.68;100580.22;16140968;19;128938;-43
2022/04/05 02:43:31;;;;;;;0.30;0.30;;;;;;;18.24;32.76;100580.22;16146666;19;128920;-45
2022/04/05 02:48:54;;;;;;;1.30;0.32;;;;;;;18.21;32.47;100581.59;16142720;19;129669;-45
2022/04/05 02:54:16;;;;;;;0.93;0.43;;;;;;;18.21;32.63;100564.97;16145584;19;129824;-47
2022/04/05 02:59:38;;;;;;;1.45;0.55;;;;;;;18.20;32.88;100568.00;16138002;19;129729;-45
2022/04/05 03:05:01;;;;;;;0.90;0.40;;;;;;;18.20;32.45;100570.78;16146384;19;129299;-47
2022/04/05 03:10:23;;;;;;;1.05;0.43;;;;;;;18.18;32.80;100568.25;16144866;19;129881;-45
2022/04/05 03:15:45;;;;;;;0.80;0.40;;;;;;;18.17;32.72;100574.03;16140723;19;128894;-43
2022/04/05 03:21:07;;;;;;;1.02;0.43;;;;;;;18.14;32.49;100575.38;16142257;19;129430;-43
2022/04/05 03:26:29;;;;;;;1.38;0.50;;;;;;;18.14;32.76;100576.22;16142290;19;129992;-48
2022/04/05 03:31:50;;;;;;;0.98;0.50;;;;;;;18.12;32.70;100578.38;16142300;19;129079;-48
2022/04/05 03:37:12;;;;;;;0.90;0.52;;;;;;;18.12;32.58;100572.03;16139108;19;129089;-43
2022/04/05 03:42:34;;;;;;;1.17;0.30;;;;;;;18.11;33.06;100565.63;16143063;19;130012;-47
2022/04/05 03:47:56;;;;;;;0.85;0.35;;;;;;;18.08;32.61;100577.22;16138561;19;129535;-44
2022/04/05 03:53:18;;;;;;;1.15;0.40;;;;;;;18.07;32.65;100575.56;16140673;19;130791;-44
2022/04/05 03:58:40;;;;;;;0.75;0.40;;;;;;;18.06;32.65;100573.88;16142496;19;129479;-48
2022/04/05 04:04:02;;;;;;;1.23;0.52;;;;;;;18.05;32.73;100580.50;16140651;19;130300;-46
2022/04/05 04:09:24;;;;;;;0.40;0.28;;;;;;;18.08;33.09;100576.38;16141980;19;129200;-44
2022/04/05 04:14:46;;;;;;;0.70;0.43;;;;;;;18.29;32.80;100574.78;16139359;19;129844;-48
2022/04/05 04:20:08;;;;;;;1.05;0.45;;;;;;;18.73;32.35;100572.13;16138936;19;130354;-48
2022/04/05 04:25:31;;;;;;;0.68;0.40;;;;;;;19.28;31.79;100565.91;16142786;19;129379;-50
2022/04/05 04:30:52;;;;;;;0.38;0.15;;;;;;;19.69;31.05;100575.53;16142060;19;129506;-47
2022/04/05 04:36:14;;;;;;;0.57;0.20;;;;;;;19.89;30.97;100571.28;16137752;19;129791;-46
2022/04/05 04:41:36;;;;;;;0.45;0.30;;;;;;;19.97;30.94;100579.13;16140289;19;129679;-44
2022/04/05 04:46:58;;;;;;;0.32;0.30;;;;;;;19.95;30.60;100569.38;16134012;19;131080;-45
2022/04/05 04:52:21;;;;;;;0.63;0.30;;;;;;;19.88;30.96;100577.94;16133952;19;129904;-42
2022/04/05 04:57:43;;;;;;;0.95;0.30;;;;;;;19.79;30.87;100571.19;16133279;19;130065;-44
2022/04/05 05:03:05;;;;;;;0.30;0.20;;;;;;;19.66;30.74;100576.06;16139497;19;129670;-44
2022/04/05 05:08:26;;;;;;;0.73;0.30;;;;;;;19.57;30.95;100568.47;16139602;19;129394;-45
2022/04/05 05:13:48;;;;;;;0.50;0.20;;;;;;;19.46;31.39;100567.50;16137443;19;129830;-46
2022/04/05 05:19:10;;;;;;;0.40;0.40;;;;;;;19.35;31.12;100574.91;16136671;19;131074;-46
2022/04/05 05:24:33;;;;;;;1.58;0.20;;;;;;;19.25;31.56;100583.94;16130146;19;130323;-45
2022/04/05 05:29:55;;;;;;;0.80;0.40;;;;;;;19.16;31.81;100588.22;16139061;19;129658;-44
2022/04/05 05:35:19;;;;;;;0.85;0.50;;;;;;;19.09;31.92;100588.41;16131601;19;130631;-47
2022/04/05 05:40:40;;;;;;;3.50;0.50;;;;;;;19.02;32.15;100591.38;16129392;19;130046;-49
2022/04/05 05:46:03;;;;;;;0.82;0.77;;;;;;;19.01;32.61;100594.44;16131051;19;129598;-47
2022/04/05 05:51:25;;;;;;;0.82;0.50;;;;;;;18.97;32.45;100599.63;16132003;19;129078;-48
2022/04/05 05:56:47;;;;;;;1.65;0.77;;;;;;;18.89;32.64;100608.38;16140189;19;130384;-48
2022/04/05 06:02:09;;;;;;;1.75;0.80;;;;;;;18.86;32.34;100611.66;16147509;19;130788;-46
2022/04/05 06:07:30;;;;;;;1.27;0.68;;;;;;;18.81;32.87;100606.88;16145668;19;129452;-46
2022/04/05 06:12:55;;;;;;;2.28;0.70;;;;;;;18.75;32.57;100608.75;16147179;19;131068;-45
2022/04/05 06:18:17;;;;;;;2.27;0.80;;;;;;;18.71;32.73;100617.84;16143533;19;128944;-43
2022/04/05 06:23:39;;;;;;;1.92;0.43;;;;;;;18.67;33.00;100614.75;16148259;19;130129;-45
2022/04/05 06:29:01;;;;;;;2.60;0.73;;;;;;;18.63;32.65;100630.19;16146837;19;129535;-47
2022/04/05 06:34:25;;;;;;;3.20;0.70;;;;;;;18.60;32.69;100634.31;16146938;19;129086;-43
2022/04/05 06:39:48;;;;;;;0.88;0.50;;;;;;;18.57;32.72;100636.75;16144570;19;130269;-45
2022/04/05 06:45:13;;;;;;;2.55;0.63;;;;;;;18.54;33.02;100640.03;16144662;19;129740;-43
2022/04/05 06:50:35;;;;;;;0.37;0.30;;;;;;;18.49;33.24;100638.00;16147843;19;129205;-49
2022/04/05 06:55:57;;;;;;;1.33;0.40;;;;;;;18.47;33.29;100648.50;16146248;19;129283;-45
2022/04/05 07:01:18;;;;;;;0.63;0.47;;;;;;;18.44;33.02;100646.22;16148048;19;129471;-45
2022/04/05 07:06:40;;;;;;;1.48;0.50;;;;;;;18.40;32.98;100645.91;16144208;19;130657;-44
2022/04/05 07:12:03;;;;;;;1.63;0.52;;;;;;;18.38;32.99;100647.22;16144454;19;128942;-48
2022/04/05 07:17:25;;;;;;;1.83;0.40;;;;;;;18.33;33.23;100647.97;16142031;19;129291;-41
2022/04/05 07:23:07;;;;;;;2.03;0.60;;;;;;;18.32;33.07;100649.06;16144240;19;131833;-42
2022/04/05 07:28:29;;;;;;;1.02;0.52;;;;;;;18.29;33.61;100647.63;16143656;19;129312;-44
2022/04/05 07:33:51;;;;;;;2.33;0.47;;;;;;;18.27;33.30;100646.19;16145751;19;129575;-48
2022/04/05 07:39:13;;;;;;;1.15;0.70;;;;;;;18.24;33.40;100643.91;16136186;19;129066;-45
2022/04/05 07:44:35;;;;;;;2.72;0.50;;;;;;;18.22;33.34;100651.63;16142601;19;129334;-43
2022/04/05 07:49:57;;;;;;;1.33;0.60;;;;;;;18.21;33.63;100663.81;16144496;19;130699;-46
2022/04/05 07:55:18;;;;;;;0.57;0.47;;;;;;;18.20;33.79;100653.84;16143095;19;129398;-44
2022/04/05 08:00:40;;;;;;;0.57;0.43;;;;;;;18.18;33.35;100653.25;16136974;19;129610;-45
2022/04/05 08:06:02;;;;;;;0.95;0.50;;;;;;;18.17;33.43;100651.56;16143823;19;129179;-43
2022/04/05 08:11:24;;;;;;;0.80;0.40;;;;;;;18.15;33.38;100649.88;16144212;19;129557;-42
2022/04/05 08:16:47;;;;;;;1.77;0.75;;;;;;;18.13;33.57;100657.59;16139917;19;129258;-46
2022/04/05 08:22:09;;;;;;;1.00;0.50;;;;;;;18.11;33.94;100665.28;16140564;19;129011;-43
2022/04/05 08:27:31;;;;;;;2.40;0.40;;;;;;;18.12;33.83;100671.69;16138478;19;129608;-45
2022/04/05 08:32:53;;;;;;;0.60;0.50;;;;;;;18.10;34.06;100666.38;16138488;19;129573;-43
2022/04/05 08:38:14;;;;;;;1.17;0.40;;;;;;;18.08;33.67;100663.06;16130673;19;130266;-42
2022/04/05 08:43:37;;;;;;;1.38;0.40;;;;;;;18.08;33.64;100671.34;16129911;19;130614;-45
2022/04/05 08:49:00;;;;;;;0.45;0.30;;;;;;;18.06;33.91;100672.66;16137164;19;129319;-42
2022/04/05 08:54:22;;;;;;;0.82;0.20;;;;;;;18.06;34.21;100668.00;16137984;19;129442;-43
2022/04/05 08:59:44;;;;;;;0.65;0.45;;;;;;;18.06;34.15;100673.53;16134216;19;129447;-43
2022/04/05 09:05:06;;;;;;;0.52;0.30;;;;;;;18.05;34.29;100677.38;16137456;19;131565;-43
2022/04/05 09:10:28;;;;;;;0.32;0.30;;;;;;;18.04;34.06;100672.94;16136907;19;129399;-42
2022/04/05 09:15:52;;;;;;;0.40;0.40;;;;;;;18.04;34.08;100675.69;16135272;19;129401;-42
2022/04/05 09:21:14;;;;;;;0.45;0.30;;;;;;;18.02;34.27;100683.41;16139627;19;129481;-43
2022/04/05 09:26:43;;;;;;;0.70;0.43;;;;;;;18.03;33.89;100687.84;16139096;19;129525;-45
2022/04/05 09:32:05;;;;;;;0.65;0.40;;;;;;;17.99;34.08;100690.28;16148013;19;129499;-44
2022/04/05 09:37:35;;;;;;;0.80;0.47;;;;;;;17.99;34.06;100695.81;16149738;19;129171;-43
2022/04/05 09:43:07;;;;;;;0.40;0.40;;;;;;;17.99;33.96;100700.50;16153196;19;130847;-42
2022/04/05 09:48:32;;;;;;;0.85;0.40;;;;;;;17.98;34.31;100694.13;16147052;19;128930;-42
2022/04/05 09:53:56;;;;;;;0.60;0.32;;;;;;;17.98;34.09;100705.22;16149346;19;129389;-42
2022/04/05 09:59:18;;;;;;;0.55;0.32;;;;;;;17.98;34.30;100701.59;16145950;19;128985;-44
2022/04/05 10:05:00;;;;;;;0.35;0.30;;;;;;;17.98;34.27;100698.81;16149297;19;129325;-42
2022/04/05 10:10:23;;;;;;;0.50;0.50;;;;;;;17.97;33.97;100714.59;16151880;19;129633;-43
2022/04/05 10:15:47;;;;;;;0.30;0.30;;;;;;;17.97;33.93;100714.59;16148692;19;129404;-45
2022/04/05 10:21:11;;;;;;;0.40;0.40;;;;;;;17.98;34.15;100715.44;16150184;19;129620;-43
2022/04/05 10:26:36;;;;;;;0.32;0.30;;;;;;;17.99;34.25;100711.56;16146935;19;129382;-43
2022/04/05 10:32:07;;;;;;;0.93;0.43;;;;;;;18.00;34.43;100710.50;16147728;19;129320;-43
2022/04/05 10:37:34;;;;;;;0.47;0.20;;;;;;;18.00;33.98;100707.72;16145091;19;130150;-44
2022/04/05 10:42:57;;;;;;;1.10;0.40;;;;;;;18.02;34.28;100708.31;16148337;19;129041;-46
2022/04/05 10:48:25;;;;;;;0.40;0.30;;;;;;;18.05;33.87;100710.59;16142561;19;129091;-43
2022/04/05 10:59:46;;;;;;;0.50;0.40;;;;;;;18.09;33.82;100702.63;16143003;19;129096;-43
2022/04/05 11:05:19;;;;;;;0.50;0.35;;;;;;;18.10;33.92;100696.00;16142759;19;129661;-44
2022/04/05 11:10:41;;;;;;;0.45;0.30;;;;;;;18.09;34.11;100695.16;16147962;19;130035;-43
2022/04/05 11:16:03;;;;;;;0.35;0.30;;;;;;;18.09;34.24;100700.69;16146136;19;130105;-42
2022/04/05 11:21:25;;;;;;;0.30;0.30;;;;;;;18.09;33.97;100695.16;16146095;19;129592;-42
2022/04/05 11:26:47;;;;;;;0.50;0.40;;;;;;;18.09;34.03;100692.38;16144935;19;128952;-44
2022/04/05 11:32:09;;;;;;;0.70;0.30;;;;;;;18.11;34.31;100687.44;16147122;19;129611;-44
2022/04/05 11:37:34;;;;;;;0.77;0.40;;;;;;;18.13;33.96;100685.28;16140520;19;129943;-43
2022/04/05 11:43:02;;;;;;;0.77;0.40;;;;;;;18.12;34.12;100686.38;16144732;19;129356;-44
2022/04/05 11:48:29;;;;;;;0.47;0.25;;;;;;;18.10;34.03;100680.22;16140200;19;129068;-43
2022/04/05 11:53:52;;;;;;;0.38;0.30;;;;;;;18.10;34.27;100674.69;16136621;19;129117;-45
2022/04/05 11:59:16;;;;;;;0.25;0.20;;;;;;;18.12;34.13;100674.47;16138700;19;131434;-42
2022/04/05 12:04:38;;;;;;;0.22;0.22;;;;;;;18.12;34.02;100657.84;16144240;19;129084;-43
2022/04/05 12:10:00;;;;;;;0.30;0.30;;;;;;;18.11;34.23;100643.16;16143886;19;128933;-46
2022/04/05 12:15:24;;;;;;;0.30;0.30;;;;;;;18.10;33.98;100647.00;16143307;19;129635;-43
2022/04/05 12:21:04;;;;;;;0.45;0.30;;;;;;;18.12;34.21;100649.53;16139058;19;131262;-42
2022/04/05 12:26:31;;;;;;;0.22;0.20;;;;;;;18.11;34.39;100648.69;16143657;19;129120;-43
2022/04/05 12:31:53;;;;;;;1.20;0.30;;;;;;;18.10;34.50;100657.25;16142858;19;129323;-42
2022/04/05 12:37:16;;;;;;;0.50;0.40;;;;;;;18.08;34.10;100663.06;16139582;19;128952;-42
2022/04/05 12:42:39;;;;;;;0.40;0.40;;;;;;;18.06;34.53;100662.47;16141335;19;129402;-44
2022/04/05 12:48:14;;;;;;;0.30;0.30;;;;;;;18.04;34.52;100664.63;16135869;19;129622;-43
2022/04/05 12:53:38;;;;;;;0.68;0.30;;;;;;;18.00;34.24;100649.59;16139234;19;131002;-42
2022/04/05 12:59:05;;;;;;;0.55;0.40;;;;;;;18.00;34.69;100663.44;16135393;19;129081;-46
2022/04/05 13:04:26;;;;;;;0.65;0.40;;;;;;;17.96;34.28;100656.75;16136730;19;129317;-44
2022/04/05 13:09:48;;;;;;;0.32;0.30;;;;;;;17.95;34.67;100663.34;16137405;19;130334;-42
2022/04/05 13:15:11;;;;;;;0.32;0.32;;;;;;;17.94;34.32;100669.97;16136044;19;129572;-44
2022/04/05 13:20:34;;;;;;;0.30;0.30;;;;;;;17.91;34.59;100671.28;16132218;19;129369;-42
2022/04/05 13:25:55;;;;;;;0.20;0.20;;;;;;;17.91;34.42;100670.47;16138311;19;129606;-43
2022/04/05 13:31:17;;;;;;;0.43;0.40;;;;;;;17.91;34.61;100660.22;16138090;19;129171;-42
2022/04/05 13:36:40;;;;;;;0.30;0.20;;;;;;;17.97;34.79;100659.25;16136227;19;129332;-43
2022/04/05 13:42:08;;;;;;;0.47;0.30;;;;;;;18.20;34.25;100662.16;16137280;19;129315;-43
2022/04/05 13:47:30;;;;;;;1.02;0.30;;;;;;;18.57;34.14;100642.28;16132283;19;129707;-43
2022/04/05 13:52:52;;;;;;;0.40;0.10;;;;;;;18.97;33.31;100648.69;16131669;19;129802;-44
2022/04/05 13:58:14;;;;;;;0.60;0.10;;;;;;;19.31;33.14;100641.16;16132761;19;129250;-43
2022/04/05 14:03:36;;;;;;;0.20;0.10;;;;;;;19.58;32.41;100634.78;16132508;19;129409;-42
2022/04/05 14:08:58;;;;;;;0.10;0.10;;;;;;;19.83;32.54;100638.94;16135131;19;129817;-42
2022/04/05 14:14:20;;;;;;;0.13;0.10;;;;;;;20.02;32.10;100633.91;16135827;19;129300;-42
2022/04/05 14:19:42;;;;;;;0.13;0.13;;;;;;;20.18;31.76;100632.13;16146263;19;131331;-42
2022/04/05 14:25:04;;;;;;;0.30;0.17;;;;;;;20.34;31.53;100621.13;16148698;19;130248;-45
2022/04/05 14:30:26;;;;;;;0.28;0.20;;;;;;;20.45;31.87;100615.38;16143659;19;129006;-44
2022/04/05 14:35:48;;;;;;;0.15;0.15;;;;;;;20.51;31.65;100609.84;16148870;19;131447;-43
2022/04/05 14:41:11;;;;;;;0.52;0.30;;;;;;;20.50;31.68;100605.38;16142740;19;129377;-45
2022/04/05 14:46:35;;;;;;;0.20;0.20;;;;;;;20.44;31.74;100604.53;16142816;19;129988;-41
2022/04/05 14:51:57;;;;;;;0.23;0.10;;;;;;;20.35;31.50;100595.00;16147904;19;129351;-42
2022/04/05 14:57:19;;;;;;;0.85;0.30;;;;;;;20.20;31.88;100598.50;16145267;19;130265;-44
2022/04/05 15:02:42;;;;;;;0.20;0.20;;;;;;;20.07;32.06;100591.44;16146139;19;129784;-43
2022/04/05 15:08:04;;;;;;;1.13;0.20;;;;;;;19.94;31.97;100579.66;16140489;19;129287;-43
2022/04/05 15:13:28;;;;;;;0.20;0.20;;;;;;;19.86;32.42;100577.34;16143483;19;129635;-42
2022/04/05 15:18:52;;;;;;;0.20;0.20;;;;;;;19.89;32.60;100571.28;16141621;19;129524;-43
2022/04/05 15:24:14;;;;;;;2.00;0.20;;;;;;;20.01;32.04;100567.53;16143569;19;132343;-44
2022/04/05 15:29:38;;;;;;;0.40;0.20;;;;;;;20.11;31.95;100573.16;16141605;19;129734;-42
2022/04/05 15:35:00;;;;;;;0.10;0.10;;;;;;;20.19;31.87;100558.78;16140171;19;130957;-45
2022/04/05 15:40:22;;;;;;;0.17;0.17;;;;;;;20.23;32.02;100554.38;16138462;19;129500;-48
2022/04/05 15:45:43;;;;;;;0.70;0.20;;;;;;;20.29;32.09;100553.31;16134932;19;129589;-45
2022/04/05 15:51:05;;;;;;;0.20;0.10;;;;;;;20.29;32.09;100542.22;16141786;19;129362;-44
2022/04/05 15:56:27;;;;;;;0.30;0.30;;;;;;;20.31;32.34;100541.09;16138553;19;129106;-43
2022/04/05 16:01:49;;;;;;;0.75;0.43;;;;;;;20.31;32.03;100549.44;16140714;19;128869;-43
2022/04/05 16:07:11;;;;;;;1.05;0.28;;;;;;;20.31;32.40;100543.88;16139777;19;130080;-43
2022/04/05 16:12:33;;;;;;;1.42;0.57;;;;;;;20.29;32.23;100541.34;16140357;19;128938;-43
2022/04/05 16:17:55;;;;;;;1.00;0.57;;;;;;;20.27;32.54;100533.31;16135953;19;130138;-45
2022/04/05 16:23:17;;;;;;;1.58;0.70;;;;;;;20.28;32.69;100523.00;16140064;19;129639;-43
2022/04/05 16:28:41;;;;;;;1.77;0.70;;;;;;;20.29;32.52;100525.53;16136501;19;130093;-47
2022/04/05 16:34:03;;;;;;;2.55;1.00;;;;;;;20.32;32.31;100526.94;16136784;19;129473;-46
2022/04/05 16:39:26;;;;;;;0.75;0.52;;;;;;;20.35;32.63;100518.06;16133202;19;129476;-43
2022/04/05 16:44:49;;;;;;;1.15;0.70;;;;;;;20.37;32.40;100526.13;16136157;19;129587;-43
2022/04/05 16:50:12;;;;;;;2.40;0.80;;;;;;;20.40;32.19;100525.59;16136290;19;130345;-44
2022/04/05 16:55:34;;;;;;;7.68;1.10;;;;;;;20.41;32.52;100505.88;16130475;19;130631;-45
2022/04/05 17:00:56;;;;;;;9.73;1.27;;;;;;;20.46;32.78;100518.97;16131266;19;129964;-47
2022/04/05 17:06:20;;;;;;;4.72;1.08;;;;;;;20.54;32.84;100521.25;16136224;19;129856;-46
2022/04/05 17:11:42;;;;;;;6.22;1.20;;;;;;;20.60;32.60;100531.28;16135098;19;129664;-46
2022/04/05 17:17:04;;;;;;;9.93;1.40;;;;;;;20.68;32.65;100520.72;16133060;19;129541;-49
2022/04/05 17:22:25;;;;;;;4.10;1.15;;;;;;;20.74;32.80;100525.22;16133989;19;129809;-47
2022/04/05 17:27:53;;;;;;;7.18;1.52;;;;;;;20.80;32.80;100504.69;16134660;19;129518;-43
2022/04/05 17:33:16;;;;;;;5.65;1.60;;;;;;;20.83;32.92;100534.75;16134959;19;129876;-46
2022/04/05 17:38:38;;;;;;;11.35;1.63;;;;;;;20.85;32.82;100531.72;16132049;19;130259;-44
2022/04/05 17:44:00;;;;;;;6.47;1.88;;;;;;;20.90;33.27;100538.13;16133338;19;129027;-45
2022/04/05 17:49:22;;;;;;;8.48;2.05;;;;;;;20.90;33.33;100535.34;16132601;19;129792;-45
2022/04/05 17:54:43;;;;;;;12.35;1.85;;;;;;;20.95;33.16;100536.47;16146360;19;129779;-45
2022/04/05 18:00:07;;;;;;;12.55;1.85;;;;;;;20.96;33.35;100529.78;16142609;19;129833;-48
2022/04/05 18:05:28;;;;;;;6.40;1.70;;;;;;;20.97;33.14;100525.91;16147890;19;129374;-49
2022/04/05 18:10:51;;;;;;;7.07;1.52;;;;;;;21.00;33.11;100534.53;16149585;19;130074;-48
2022/04/05 18:16:12;;;;;;;4.95;1.80;;;;;;;21.03;33.27;100538.75;16146062;19;128947;-43
2022/04/05 18:21:35;;;;;;;6.85;1.75;;;;;;;21.08;33.31;100551.81;16142910;19;129438;-41
2022/04/05 18:26:56;;;;;;;7.43;1.83;;;;;;;21.11;33.19;100551.28;16148627;19;129895;-42
2022/04/05 18:32:20;;;;;;;4.20;1.67;;;;;;;21.16;33.31;100554.94;16146969;19;129109;-42
2022/04/05 18:37:42;;;;;;;6.40;1.55;;;;;;;21.21;33.18;100545.75;16145624;19;129163;-46
2022/04/05 18:43:08;;;;;;;6.80;1.80;;;;;;;21.24;33.06;100550.75;16140743;19;129432;-46
2022/04/05 18:48:30;;;;;;;9.55;1.67;;;;;;;21.31;33.13;100550.50;16137568;19;130425;-42
2022/04/05 18:53:52;;;;;;;12.18;1.40;;;;;;;21.35;33.24;100557.19;16143806;19;129315;-49
2022/04/05 18:59:14;;;;;;;11.02;1.70;;;;;;;21.38;32.92;100551.09;16135124;19;130661;-43
2022/04/05 19:04:36;;;;;;;5.70;1.52;;;;;;;21.44;33.36;100561.09;16141308;19;129945;-47
2022/04/05 19:09:58;;;;;;;6.40;1.25;;;;;;;21.47;33.41;100566.13;16143295;19;132718;-44
2022/04/05 19:15:21;;;;;;;6.47;1.13;;;;;;;21.51;33.15;100561.72;16143428;19;130171;-46
2022/04/05 19:20:46;;;;;;;7.80;1.63;;;;;;;21.56;33.16;100557.25;16138035;19;130238;-41
2022/04/05 19:26:08;;;;;;;7.63;1.45;;;;;;;21.58;33.41;100571.75;16141422;19;129662;-45
2022/04/05 19:31:30;;;;;;;5.95;1.30;;;;;;;21.62;33.12;100572.88;16141673;19;130319;-51
2022/04/05 19:36:52;;;;;;;6.85;1.20;;;;;;;21.64;33.39;100565.91;16140570;19;129822;-42
2022/04/05 19:42:14;;;;;;;5.20;1.17;;;;;;;21.68;32.88;100571.75;16136039;19;129570;-47
2022/04/05 19:47:36;;;;;;;5.55;1.05;;;;;;;21.70;33.10;100563.97;16138083;19;129295;-48
2022/04/05 19:52:58;;;;;;;5.43;1.25;;;;;;;21.72;33.30;100560.94;16138945;19;129144;-48
2022/04/05 19:58:20;;;;;;;3.25;1.08;;;;;;;21.75;33.15;100572.34;16135060;19;129848;-50
2022/04/05 20:03:41;;;;;;;2.10;0.90;;;;;;;21.76;33.05;100571.25;16139586;19;130200;-45
2022/04/05 20:09:04;;;;;;;3.78;0.90;;;;;;;21.79;32.92;100573.44;16139935;19;129333;-42
2022/04/05 20:14:26;;;;;;;5.30;1.13;;;;;;;21.81;32.92;100576.78;16137988;19;129748;-47
2022/04/05 20:19:47;;;;;;;3.65;1.00;;;;;;;21.84;33.32;100578.22;16132674;19;129499;-46
2022/04/05 20:25:09;;;;;;;3.30;1.13;;;;;;;21.85;33.01;100581.81;16137057;19;129309;-41
2022/04/05 20:30:31;;;;;;;3.63;1.00;;;;;;;21.88;33.14;100570.13;16138661;19;129582;-43
2022/04/05 20:35:54;;;;;;;5.43;0.90;;;;;;;21.82;33.24;100577.66;16139550;19;129161;-44
2022/04/05 20:41:16;;;;;;;7.13;1.17;;;;;;;21.79;33.44;100569.84;16132472;19;129869;-46
2022/04/05 20:46:38;;;;;;;4.40;1.10;;;;;;;21.66;33.18;100577.63;16134905;19;132598;-42
2022/04/05 20:52:04;;;;;;;11.25;1.23;;;;;;;21.50;33.57;100565.63;16135846;19;129982;-42
2022/04/05 20:57:26;;;;;;;4.88;1.20;;;;;;;21.37;33.33;100566.09;16132691;19;129542;-48
2022/04/05 21:02:48;;;;;;;7.13;1.25;;;;;;;21.20;33.39;100567.16;16130373;19;129621;-46
2022/04/05 21:08:10;;;;;;;4.47;0.75;;;;;;;21.07;33.65;100564.88;16135269;19;130198;-46
2022/04/05 21:13:33;;;;;;;5.85;1.10;;;;;;;20.94;33.75;100565.38;16134773;19;131065;-45
2022/04/05 21:18:55;;;;;;;14.07;1.33;;;;;;;20.82;33.76;100551.72;16132929;19;130163;-44
2022/04/05 21:24:17;;;;;;;4.18;1.20;;;;;;;20.70;34.08;100551.88;16130995;19;129726;-44
2022/04/05 21:29:40;;;;;;;2.75;1.00;;;;;;;20.57;33.73;100554.03;16133617;19;129941;-42
2022/04/05 21:35:02;;;;;;;3.58;1.02;;;;;;;20.47;33.77;100553.97;16131410;19;130585;-43
2022/04/05 21:40:24;;;;;;;3.03;1.10;;;;;;;20.38;33.87;100545.31;16130895;19;129267;-45
2022/04/05 21:45:46;;;;;;;3.22;0.90;;;;;;;20.29;33.87;100541.34;16132493;19;131575;-43
2022/04/05 21:51:07;;;;;;;5.68;1.20;;;;;;;20.21;33.90;100544.63;16134575;19;130368;-43
2022/04/05 21:56:29;;;;;;;3.70;1.00;;;;;;;20.13;34.34;100538.47;16133872;19;131540;-43
2022/04/05 22:01:51;;;;;;;2.17;0.82;;;;;;;20.08;34.41;100534.81;16128720;19;129211;-44
2022/04/05 22:07:15;;;;;;;3.97;1.30;;;;;;;20.02;34.29;100536.72;16133533;19;129303;-42
2022/04/05 22:12:37;;;;;;;2.78;1.15;;;;;;;19.97;34.46;100529.16;16134500;19;129236;-42
2022/04/05 22:17:59;;;;;;;1.98;0.90;;;;;;;19.90;34.52;100525.78;16132648;19;130495;-42
2022/04/05 22:23:21;;;;;;;5.07;1.13;;;;;;;19.84;34.39;100513.78;16127057;19;130205;-46
2022/04/05 22:28:43;;;;;;;2.15;0.88;;;;;;;19.79;34.49;100522.06;16132616;19;129191;-45
2022/04/05 22:34:05;;;;;;;3.42;1.20;;;;;;;19.76;34.46;100516.19;16129654;19;130375;-45
2022/04/05 22:39:27;;;;;;;2.58;0.90;;;;;;;19.71;34.48;100513.38;16142532;19;128989;-45
2022/04/05 22:44:49;;;;;;;3.78;0.98;;;;;;;19.65;34.42;100499.47;16145073;19;129288;-42
2022/04/05 22:50:11;;;;;;;3.60;0.95;;;;;;;19.61;34.51;100498.31;16147327;19;129640;-42
2022/04/05 22:55:32;;;;;;;1.35;0.70;;;;;;;19.58;34.43;100498.00;16140978;19;132222;-44
2022/04/05 23:00:54;;;;;;;2.65;0.95;;;;;;;19.55;34.14;100488.28;16140793;19;130736;-46
2022/04/05 23:06:18;;;;;;;2.88;0.90;;;;;;;19.51;34.38;100484.34;16146576;19;129501;-43
2022/04/05 23:11:40;;;;;;;2.80;1.10;;;;;;;19.49;34.44;100490.16;16145998;19;129973;-44
2022/04/05 23:17:02;;;;;;;2.55;0.80;;;;;;;19.46;34.43;100496.22;16146773;19;129815;-46
2022/04/05 23:22:23;;;;;;;2.83;1.10;;;;;;;19.43;34.51;100501.47;16139492;19;128908;-42
2022/04/05 23:27:45;;;;;;;1.63;0.73;;;;;;;19.41;34.54;100493.41;16144319;19;129424;-48
2022/04/05 23:33:07;;;;;;;4.60;1.05;;;;;;;19.38;34.29;100491.16;16143721;19;129114;-43
2022/04/05 23:38:29;;;;;;;2.72;0.90;;;;;;;19.35;34.07;100481.41;16142137;19;129162;-43
2022/04/05 23:43:50;;;;;;;3.05;1.08;;;;;;;19.33;34.48;100483.59;16143303;19;129014;-46
2022/04/05 23:49:12;;;;;;;3.25;0.90;;;;;;;19.31;34.09;100471.97;16139393;19;129935;-47
2022/04/05 23:54:34;;;;;;;4.03;1.10;;;;;;;19.28;34.33;100478.03;16141893;19;129716;-42
